sensor_id;sensor_type;location;lat;lon;timestamp;pressure;altitude;pressure_sealevel;temperature;humidity
35129;BME280;21301;43.626;10.580;2023-11-19T00:00:28;102191.31;;;8.70;76.67
35129;BME280;21301;43.626;10.580;2023-11-19T00:02:54;102201.81;;;8.70;76.57
35129;BME280;21301;43.626;10.580;2023-11-19T00:05:20;102196.72;;;8.67;77.01
35129;BME280;21301;43.626;10.580;2023-11-19T00:07:45;102198.75;;;8.60;77.06
35129;BME280;21301;43.626;10.580;2023-11-19T00:10:15;102188.06;;;8.65;76.15
35129;BME280;21301;43.626;10.580;2023-11-19T00:12:48;102183.00;;;8.60;76.94
35129;BME280;21301;43.626;10.580;2023-11-19T00:15:15;102189.25;;;8.58;77.24
35129;BME280;21301;43.626;10.580;2023-11-19T00:17:42;102186.75;;;8.55;77.49
35129;BME280;21301;43.626;10.580;2023-11-19T00:20:14;102191.16;;;8.54;77.07
35129;BME280;21301;43.626;10.580;2023-11-19T00:22:41;102187.94;;;8.47;76.85
35129;BME280;21301;43.626;10.580;2023-11-19T00:25:08;102196.66;;;8.48;77.04
35129;BME280;21301;43.626;10.580;2023-11-19T00:27:34;102185.59;;;8.41;77.97
35129;BME280;21301;43.626;10.580;2023-11-19T00:29:59;102175.34;;;8.35;77.50
35129;BME280;21301;43.626;10.580;2023-11-19T00:32:25;102176.91;;;8.39;77.34
35129;BME280;21301;43.626;10.580;2023-11-19T00:34:50;102185.53;;;8.43;77.34
35129;BME280;21301;43.626;10.580;2023-11-19T00:37:16;102182.72;;;8.47;77.25
35129;BME280;21301;43.626;10.580;2023-11-19T00:39:42;102171.09;;;8.53;77.58
35129;BME280;21301;43.626;10.580;2023-11-19T00:42:09;102175.75;;;8.46;77.37
35129;BME280;21301;43.626;10.580;2023-11-19T00:44:36;102165.41;;;8.43;77.49
35129;BME280;21301;43.626;10.580;2023-11-19T00:47:02;102174.38;;;8.38;77.61
35129;BME280;21301;43.626;10.580;2023-11-19T00:49:28;102176.25;;;8.34;77.41
35129;BME280;21301;43.626;10.580;2023-11-19T00:51:53;102182.28;;;8.36;77.18
35129;BME280;21301;43.626;10.580;2023-11-19T00:54:19;102186.69;;;8.36;77.22
35129;BME280;21301;43.626;10.580;2023-11-19T00:56:45;102200.47;;;8.41;76.85
35129;BME280;21301;43.626;10.580;2023-11-19T00:59:10;102204.03;;;8.40;77.05
35129;BME280;21301;43.626;10.580;2023-11-19T01:01:36;102199.63;;;8.40;76.97
35129;BME280;21301;43.626;10.580;2023-11-19T01:04:02;102199.19;;;8.29;77.63
35129;BME280;21301;43.626;10.580;2023-11-19T01:06:30;102194.22;;;8.23;77.62
35129;BME280;21301;43.626;10.580;2023-11-19T01:08:56;102201.16;;;8.24;77.42
35129;BME280;21301;43.626;10.580;2023-11-19T01:11:23;102202.38;;;8.15;77.28
35129;BME280;21301;43.626;10.580;2023-11-19T01:13:49;102202.47;;;8.14;77.24
35129;BME280;21301;43.626;10.580;2023-11-19T01:16:16;102200.66;;;8.16;77.59
35129;BME280;21301;43.626;10.580;2023-11-19T01:18:42;102202.28;;;8.18;77.54
35129;BME280;21301;43.626;10.580;2023-11-19T01:21:08;102203.78;;;8.24;77.52
35129;BME280;21301;43.626;10.580;2023-11-19T01:23:34;102202.78;;;8.26;78.09
35129;BME280;21301;43.626;10.580;2023-11-19T01:26:00;102206.53;;;8.21;77.81
35129;BME280;21301;43.626;10.580;2023-11-19T01:28:25;102199.00;;;8.13;78.08
35129;BME280;21301;43.626;10.580;2023-11-19T01:30:51;102196.78;;;8.04;78.20
35129;BME280;21301;43.626;10.580;2023-11-19T01:33:17;102186.28;;;8.04;78.23
35129;BME280;21301;43.626;10.580;2023-11-19T01:35:42;102195.59;;;8.11;78.36
35129;BME280;21301;43.626;10.580;2023-11-19T01:38:08;102187.72;;;8.11;77.93
35129;BME280;21301;43.626;10.580;2023-11-19T01:40:34;102179.03;;;8.10;77.99
35129;BME280;21301;43.626;10.580;2023-11-19T01:43:02;102182.94;;;8.21;77.79
35129;BME280;21301;43.626;10.580;2023-11-19T01:45:28;102172.19;;;8.27;77.32
35129;BME280;21301;43.626;10.580;2023-11-19T01:47:56;102175.47;;;8.32;77.48
35129;BME280;21301;43.626;10.580;2023-11-19T01:50:23;102182.44;;;8.33;77.61
35129;BME280;21301;43.626;10.580;2023-11-19T01:52:54;102197.50;;;8.28;77.34
35129;BME280;21301;43.626;10.580;2023-11-19T01:55:23;102190.03;;;8.19;78.22
35129;BME280;21301;43.626;10.580;2023-11-19T01:57:49;102178.16;;;8.10;77.83
35129;BME280;21301;43.626;10.580;2023-11-19T02:00:16;102174.16;;;8.01;78.00
35129;BME280;21301;43.626;10.580;2023-11-19T02:02:46;102165.38;;;8.02;77.71
35129;BME280;21301;43.626;10.580;2023-11-19T02:05:12;102169.78;;;8.02;78.10
35129;BME280;21301;43.626;10.580;2023-11-19T02:07:38;102168.00;;;8.02;77.89
35129;BME280;21301;43.626;10.580;2023-11-19T02:10:05;102164.47;;;8.03;78.67
35129;BME280;21301;43.626;10.580;2023-11-19T02:12:31;102162.81;;;8.01;78.06
35129;BME280;21301;43.626;10.580;2023-11-19T02:15:02;102159.63;;;7.94;78.06
35129;BME280;21301;43.626;10.580;2023-11-19T02:17:29;102155.03;;;7.99;78.15
35129;BME280;21301;43.626;10.580;2023-11-19T02:19:57;102157.66;;;7.99;78.52
35129;BME280;21301;43.626;10.580;2023-11-19T02:22:26;102160.19;;;8.01;78.43
35129;BME280;21301;43.626;10.580;2023-11-19T02:24:56;102153.91;;;8.05;78.03
35129;BME280;21301;43.626;10.580;2023-11-19T02:30:05;102148.16;;;8.17;78.67
35129;BME280;21301;43.626;10.580;2023-11-19T02:32:34;102138.00;;;8.09;78.57
35129;BME280;21301;43.626;10.580;2023-11-19T02:35:01;102141.56;;;8.08;78.39
35129;BME280;21301;43.626;10.580;2023-11-19T02:37:27;102145.03;;;8.09;78.34
35129;BME280;21301;43.626;10.580;2023-11-19T02:39:53;102145.16;;;8.06;78.08
35129;BME280;21301;43.626;10.580;2023-11-19T02:42:19;102144.69;;;8.17;77.55
35129;BME280;21301;43.626;10.580;2023-11-19T02:44:45;102150.78;;;8.17;77.63
35129;BME280;21301;43.626;10.580;2023-11-19T02:47:11;102136.97;;;8.14;78.36
35129;BME280;21301;43.626;10.580;2023-11-19T02:49:37;102131.63;;;8.15;77.85
35129;BME280;21301;43.626;10.580;2023-11-19T02:52:03;102112.75;;;8.08;77.82
35129;BME280;21301;43.626;10.580;2023-11-19T02:54:30;102105.53;;;7.93;78.90
35129;BME280;21301;43.626;10.580;2023-11-19T02:57:00;102108.41;;;7.87;78.14
35129;BME280;21301;43.626;10.580;2023-11-19T02:59:27;102108.13;;;7.93;78.89
35129;BME280;21301;43.626;10.580;2023-11-19T03:01:54;102102.72;;;7.98;78.85
35129;BME280;21301;43.626;10.580;2023-11-19T03:04:20;102105.41;;;7.96;78.98
35129;BME280;21301;43.626;10.580;2023-11-19T03:06:46;102085.03;;;8.03;78.98
35129;BME280;21301;43.626;10.580;2023-11-19T03:09:12;102088.97;;;7.93;78.20
35129;BME280;21301;43.626;10.580;2023-11-19T03:11:37;102087.91;;;7.97;78.61
35129;BME280;21301;43.626;10.580;2023-11-19T03:14:03;102082.03;;;7.92;78.80
35129;BME280;21301;43.626;10.580;2023-11-19T03:16:29;102091.38;;;7.97;78.40
35129;BME280;21301;43.626;10.580;2023-11-19T03:18:55;102090.88;;;7.89;78.73
35129;BME280;21301;43.626;10.580;2023-11-19T03:21:30;102096.50;;;7.80;78.95
35129;BME280;21301;43.626;10.580;2023-11-19T03:23:57;102096.13;;;7.89;79.18
35129;BME280;21301;43.626;10.580;2023-11-19T03:26:26;102086.63;;;7.86;78.73
35129;BME280;21301;43.626;10.580;2023-11-19T03:28:53;102088.25;;;7.89;78.86
35129;BME280;21301;43.626;10.580;2023-11-19T03:31:18;102085.56;;;7.90;78.51
35129;BME280;21301;43.626;10.580;2023-11-19T03:33:44;102081.84;;;7.96;78.01
35129;BME280;21301;43.626;10.580;2023-11-19T03:36:10;102084.31;;;7.99;78.23
35129;BME280;21301;43.626;10.580;2023-11-19T03:38:36;102089.75;;;7.95;78.53
35129;BME280;21301;43.626;10.580;2023-11-19T03:41:10;102090.63;;;7.75;79.11
35129;BME280;21301;43.626;10.580;2023-11-19T03:43:38;102095.44;;;7.84;78.98
35129;BME280;21301;43.626;10.580;2023-11-19T03:46:04;102088.09;;;7.72;79.55
35129;BME280;21301;43.626;10.580;2023-11-19T03:48:31;102087.81;;;7.79;79.24
35129;BME280;21301;43.626;10.580;2023-11-19T03:50:56;102090.13;;;7.85;79.22
35129;BME280;21301;43.626;10.580;2023-11-19T03:53:22;102089.44;;;7.82;78.55
35129;BME280;21301;43.626;10.580;2023-11-19T03:55:49;102078.97;;;7.82;78.96
35129;BME280;21301;43.626;10.580;2023-11-19T03:58:15;102087.06;;;7.76;78.67
35129;BME280;21301;43.626;10.580;2023-11-19T04:00:40;102087.31;;;7.90;78.96
35129;BME280;21301;43.626;10.580;2023-11-19T04:03:06;102090.41;;;7.79;79.02
35129;BME280;21301;43.626;10.580;2023-11-19T04:05:32;102076.84;;;7.69;79.23
35129;BME280;21301;43.626;10.580;2023-11-19T04:07:57;102086.84;;;7.17;79.49
35129;BME280;21301;43.626;10.580;2023-11-19T04:10:23;102084.03;;;7.44;79.21
35129;BME280;21301;43.626;10.580;2023-11-19T04:12:49;102095.34;;;7.22;80.33
35129;BME280;21301;43.626;10.580;2023-11-19T04:15:15;102087.44;;;7.46;79.78
35129;BME280;21301;43.626;10.580;2023-11-19T04:17:41;102080.28;;;7.50;79.29
35129;BME280;21301;43.626;10.580;2023-11-19T04:20:06;102091.75;;;7.47;79.71
35129;BME280;21301;43.626;10.580;2023-11-19T04:22:36;102075.84;;;7.52;79.46
35129;BME280;21301;43.626;10.580;2023-11-19T04:25:02;102080.66;;;7.40;79.88
35129;BME280;21301;43.626;10.580;2023-11-19T04:27:27;102083.66;;;7.53;79.77
35129;BME280;21301;43.626;10.580;2023-11-19T04:29:53;102074.91;;;7.53;79.83
35129;BME280;21301;43.626;10.580;2023-11-19T04:32:18;102077.44;;;7.56;79.25
35129;BME280;21301;43.626;10.580;2023-11-19T04:34:44;102081.59;;;7.60;78.81
35129;BME280;21301;43.626;10.580;2023-11-19T04:37:10;102080.38;;;7.68;79.50
35129;BME280;21301;43.626;10.580;2023-11-19T04:39:35;102085.63;;;7.68;78.56
35129;BME280;21301;43.626;10.580;2023-11-19T04:42:02;102082.28;;;7.65;79.01
35129;BME280;21301;43.626;10.580;2023-11-19T04:44:29;102078.56;;;7.71;78.79
35129;BME280;21301;43.626;10.580;2023-11-19T04:46:55;102081.13;;;7.72;78.92
35129;BME280;21301;43.626;10.580;2023-11-19T04:49:21;102077.97;;;7.84;79.01
35129;BME280;21301;43.626;10.580;2023-11-19T04:51:46;102074.22;;;7.90;78.84
35129;BME280;21301;43.626;10.580;2023-11-19T04:54:15;102070.44;;;7.97;78.51
35129;BME280;21301;43.626;10.580;2023-11-19T04:56:45;102070.22;;;7.81;77.53
35129;BME280;21301;43.626;10.580;2023-11-19T04:59:11;102059.75;;;7.81;77.93
35129;BME280;21301;43.626;10.580;2023-11-19T05:01:37;102056.81;;;7.68;78.26
35129;BME280;21301;43.626;10.580;2023-11-19T05:04:02;102061.53;;;7.60;78.16
35129;BME280;21301;43.626;10.580;2023-11-19T05:06:31;102060.66;;;7.39;78.59
35129;BME280;21301;43.626;10.580;2023-11-19T05:09:00;102050.88;;;7.22;79.01
35129;BME280;21301;43.626;10.580;2023-11-19T05:11:30;102051.31;;;7.12;80.01
35129;BME280;21301;43.626;10.580;2023-11-19T05:13:56;102046.38;;;7.04;80.13
35129;BME280;21301;43.626;10.580;2023-11-19T05:16:22;102041.94;;;7.06;80.21
35129;BME280;21301;43.626;10.580;2023-11-19T05:18:47;102054.00;;;7.10;80.17
35129;BME280;21301;43.626;10.580;2023-11-19T05:21:13;102048.41;;;7.19;79.98
35129;BME280;21301;43.626;10.580;2023-11-19T05:23:39;102057.69;;;7.27;79.69
35129;BME280;21301;43.626;10.580;2023-11-19T05:26:05;102054.09;;;7.29;80.35
35129;BME280;21301;43.626;10.580;2023-11-19T05:28:30;102052.94;;;7.36;79.51
35129;BME280;21301;43.626;10.580;2023-11-19T05:30:56;102050.91;;;7.43;80.02
35129;BME280;21301;43.626;10.580;2023-11-19T05:33:22;102041.78;;;7.53;80.20
35129;BME280;21301;43.626;10.580;2023-11-19T05:35:47;102044.06;;;7.61;79.93
35129;BME280;21301;43.626;10.580;2023-11-19T05:38:13;102042.47;;;7.57;80.04
35129;BME280;21301;43.626;10.580;2023-11-19T05:40:40;102041.03;;;7.50;81.29
35129;BME280;21301;43.626;10.580;2023-11-19T05:43:06;102041.81;;;7.52;80.87
35129;BME280;21301;43.626;10.580;2023-11-19T05:45:32;102052.06;;;7.58;80.61
35129;BME280;21301;43.626;10.580;2023-11-19T05:47:58;102049.09;;;7.65;81.22
35129;BME280;21301;43.626;10.580;2023-11-19T05:50:23;102042.16;;;7.64;80.75
35129;BME280;21301;43.626;10.580;2023-11-19T05:52:49;102044.84;;;7.63;81.46
35129;BME280;21301;43.626;10.580;2023-11-19T05:55:15;102051.78;;;7.64;81.42
35129;BME280;21301;43.626;10.580;2023-11-19T05:57:41;102050.97;;;7.62;80.97
35129;BME280;21301;43.626;10.580;2023-11-19T06:00:07;102040.25;;;7.68;81.34
35129;BME280;21301;43.626;10.580;2023-11-19T06:02:37;102045.31;;;7.73;81.17
35129;BME280;21301;43.626;10.580;2023-11-19T06:05:04;102044.25;;;7.77;81.30
35129;BME280;21301;43.626;10.580;2023-11-19T06:07:32;102048.44;;;7.81;80.78
35129;BME280;21301;43.626;10.580;2023-11-19T06:09:57;102037.50;;;7.92;80.66
35129;BME280;21301;43.626;10.580;2023-11-19T06:12:23;102043.72;;;7.89;80.46
35129;BME280;21301;43.626;10.580;2023-11-19T06:14:48;102039.41;;;7.88;80.13
35129;BME280;21301;43.626;10.580;2023-11-19T06:17:14;102042.00;;;7.88;80.84
35129;BME280;21301;43.626;10.580;2023-11-19T06:19:39;102052.44;;;7.89;81.11
35129;BME280;21301;43.626;10.580;2023-11-19T06:22:05;102053.97;;;7.94;80.23
35129;BME280;21301;43.626;10.580;2023-11-19T06:24:31;102052.03;;;7.99;80.59
35129;BME280;21301;43.626;10.580;2023-11-19T06:26:56;102042.59;;;7.95;80.81
35129;BME280;21301;43.626;10.580;2023-11-19T06:29:22;102043.34;;;7.78;81.15
35129;BME280;21301;43.626;10.580;2023-11-19T06:31:47;102042.81;;;7.90;80.80
35129;BME280;21301;43.626;10.580;2023-11-19T06:34:14;102043.25;;;8.00;80.86
35129;BME280;21301;43.626;10.580;2023-11-19T06:36:40;102056.34;;;8.00;80.87
35129;BME280;21301;43.626;10.580;2023-11-19T06:39:05;102055.41;;;8.01;80.68
35129;BME280;21301;43.626;10.580;2023-11-19T06:41:31;102052.88;;;7.99;80.79
35129;BME280;21301;43.626;10.580;2023-11-19T06:43:57;102044.09;;;8.00;80.07
35129;BME280;21301;43.626;10.580;2023-11-19T06:46:22;102051.69;;;8.06;80.06
35129;BME280;21301;43.626;10.580;2023-11-19T06:48:48;102052.13;;;8.16;80.45
35129;BME280;21301;43.626;10.580;2023-11-19T06:51:13;102050.16;;;8.21;80.58
35129;BME280;21301;43.626;10.580;2023-11-19T06:53:39;102047.59;;;8.20;80.41
35129;BME280;21301;43.626;10.580;2023-11-19T06:56:17;102045.13;;;8.17;80.70
35129;BME280;21301;43.626;10.580;2023-11-19T06:58:42;102046.16;;;8.13;80.58
35129;BME280;21301;43.626;10.580;2023-11-19T07:01:08;102036.69;;;8.10;80.56
35129;BME280;21301;43.626;10.580;2023-11-19T07:03:35;102043.44;;;8.16;80.87
35129;BME280;21301;43.626;10.580;2023-11-19T07:06:00;102057.22;;;8.19;81.31
35129;BME280;21301;43.626;10.580;2023-11-19T07:08:26;102052.72;;;8.23;81.11
35129;BME280;21301;43.626;10.580;2023-11-19T07:10:52;102050.31;;;8.18;80.75
35129;BME280;21301;43.626;10.580;2023-11-19T07:13:18;102052.19;;;8.15;81.34
35129;BME280;21301;43.626;10.580;2023-11-19T07:15:44;102060.41;;;8.07;80.72
35129;BME280;21301;43.626;10.580;2023-11-19T07:18:10;102077.59;;;8.13;80.98
35129;BME280;21301;43.626;10.580;2023-11-19T07:20:37;102081.25;;;8.29;81.06
35129;BME280;21301;43.626;10.580;2023-11-19T07:23:03;102078.00;;;8.44;80.65
35129;BME280;21301;43.626;10.580;2023-11-19T07:25:29;102072.28;;;8.35;80.35
35129;BME280;21301;43.626;10.580;2023-11-19T07:27:55;102066.31;;;8.31;80.41
35129;BME280;21301;43.626;10.580;2023-11-19T07:30:21;102059.06;;;8.17;80.93
35129;BME280;21301;43.626;10.580;2023-11-19T07:32:47;102062.75;;;8.13;80.91
35129;BME280;21301;43.626;10.580;2023-11-19T07:35:14;102059.84;;;8.19;81.41
35129;BME280;21301;43.626;10.580;2023-11-19T07:37:41;102065.47;;;8.30;80.97
35129;BME280;21301;43.626;10.580;2023-11-19T07:40:08;102071.50;;;8.32;81.07
35129;BME280;21301;43.626;10.580;2023-11-19T07:42:34;102072.50;;;8.30;80.82
35129;BME280;21301;43.626;10.580;2023-11-19T07:44:59;102069.00;;;8.29;80.90
35129;BME280;21301;43.626;10.580;2023-11-19T07:47:25;102066.38;;;8.29;80.77
35129;BME280;21301;43.626;10.580;2023-11-19T07:49:50;102071.50;;;8.32;80.41
35129;BME280;21301;43.626;10.580;2023-11-19T07:52:16;102075.59;;;8.38;81.14
35129;BME280;21301;43.626;10.580;2023-11-19T07:54:41;102072.28;;;8.35;81.28
35129;BME280;21301;43.626;10.580;2023-11-19T07:57:07;102074.59;;;8.42;80.82
35129;BME280;21301;43.626;10.580;2023-11-19T07:59:33;102082.03;;;8.51;80.23
35129;BME280;21301;43.626;10.580;2023-11-19T08:01:58;102076.28;;;8.62;80.19
35129;BME280;21301;43.626;10.580;2023-11-19T08:04:24;102073.41;;;8.68;80.23
35129;BME280;21301;43.626;10.580;2023-11-19T08:06:49;102066.94;;;8.76;80.15
35129;BME280;21301;43.626;10.580;2023-11-19T08:09:15;102073.25;;;8.71;79.65
35129;BME280;21301;43.626;10.580;2023-11-19T08:11:42;102063.34;;;8.78;79.46
35129;BME280;21301;43.626;10.580;2023-11-19T08:14:08;102069.84;;;8.88;79.25
35129;BME280;21301;43.626;10.580;2023-11-19T08:16:40;102073.31;;;8.89;79.28
35129;BME280;21301;43.626;10.580;2023-11-19T08:19:05;102075.50;;;8.98;79.34
35129;BME280;21301;43.626;10.580;2023-11-19T08:21:31;102069.41;;;8.98;78.81
35129;BME280;21301;43.626;10.580;2023-11-19T08:23:56;102072.09;;;8.96;78.91
35129;BME280;21301;43.626;10.580;2023-11-19T08:26:22;102073.31;;;8.89;79.12
35129;BME280;21301;43.626;10.580;2023-11-19T08:28:48;102080.97;;;8.93;78.87
35129;BME280;21301;43.626;10.580;2023-11-19T08:31:13;102076.66;;;8.92;78.97
35129;BME280;21301;43.626;10.580;2023-11-19T08:33:39;102083.56;;;8.93;79.08
35129;BME280;21301;43.626;10.580;2023-11-19T08:36:04;102078.19;;;8.96;79.01
35129;BME280;21301;43.626;10.580;2023-11-19T08:38:30;102076.13;;;9.03;78.77
35129;BME280;21301;43.626;10.580;2023-11-19T08:40:56;102069.81;;;9.07;78.63
35129;BME280;21301;43.626;10.580;2023-11-19T08:43:25;102072.22;;;9.12;78.82
35129;BME280;21301;43.626;10.580;2023-11-19T08:45:51;102070.28;;;9.15;78.38
35129;BME280;21301;43.626;10.580;2023-11-19T08:48:17;102074.75;;;9.13;78.69
35129;BME280;21301;43.626;10.580;2023-11-19T08:50:42;102075.84;;;9.09;78.64
35129;BME280;21301;43.626;10.580;2023-11-19T08:53:08;102069.44;;;9.15;78.63
35129;BME280;21301;43.626;10.580;2023-11-19T08:55:33;102075.97;;;9.06;78.74
35129;BME280;21301;43.626;10.580;2023-11-19T08:57:59;102072.13;;;9.13;78.59
35129;BME280;21301;43.626;10.580;2023-11-19T09:00:24;102076.59;;;9.11;78.59
35129;BME280;21301;43.626;10.580;2023-11-19T09:02:50;102073.84;;;9.14;78.29
35129;BME280;21301;43.626;10.580;2023-11-19T09:05:15;102058.78;;;9.18;78.31
35129;BME280;21301;43.626;10.580;2023-11-19T09:07:41;102060.94;;;9.10;78.34
35129;BME280;21301;43.626;10.580;2023-11-19T09:10:07;102060.56;;;9.17;78.46
35129;BME280;21301;43.626;10.580;2023-11-19T09:12:34;102048.22;;;9.20;78.06
35129;BME280;21301;43.626;10.580;2023-11-19T09:15:00;102046.25;;;9.06;78.35
35129;BME280;21301;43.626;10.580;2023-11-19T09:17:26;102050.59;;;9.07;78.16
35129;BME280;21301;43.626;10.580;2023-11-19T09:19:51;102049.28;;;9.15;78.13
35129;BME280;21301;43.626;10.580;2023-11-19T09:22:17;102054.53;;;9.15;78.04
35129;BME280;21301;43.626;10.580;2023-11-19T09:24:43;102060.03;;;9.28;77.83
35129;BME280;21301;43.626;10.580;2023-11-19T09:27:10;102067.59;;;9.34;77.86
35129;BME280;21301;43.626;10.580;2023-11-19T09:29:36;102064.59;;;9.42;77.54
35129;BME280;21301;43.626;10.580;2023-11-19T09:32:01;102074.09;;;9.45;77.29
35129;BME280;21301;43.626;10.580;2023-11-19T09:34:27;102063.53;;;9.46;77.32
35129;BME280;21301;43.626;10.580;2023-11-19T09:36:53;102079.91;;;9.51;76.92
35129;BME280;21301;43.626;10.580;2023-11-19T09:39:18;102069.47;;;9.50;76.89
35129;BME280;21301;43.626;10.580;2023-11-19T09:41:45;102065.59;;;9.57;77.10
35129;BME280;21301;43.626;10.580;2023-11-19T09:44:11;102063.84;;;9.57;76.79
35129;BME280;21301;43.626;10.580;2023-11-19T09:46:41;102064.06;;;9.53;76.79
35129;BME280;21301;43.626;10.580;2023-11-19T09:49:08;102061.91;;;9.61;76.60
35129;BME280;21301;43.626;10.580;2023-11-19T09:51:38;102061.69;;;9.66;76.50
35129;BME280;21301;43.626;10.580;2023-11-19T09:54:04;102056.78;;;9.93;76.82
35129;BME280;21301;43.626;10.580;2023-11-19T09:56:29;102041.66;;;10.47;77.71
35129;BME280;21301;43.626;10.580;2023-11-19T09:58:56;102031.16;;;10.47;77.02
35129;BME280;21301;43.626;10.580;2023-11-19T10:01:21;102032.91;;;10.94;77.24
35129;BME280;21301;43.626;10.580;2023-11-19T10:03:48;102048.75;;;11.24;77.07
35129;BME280;21301;43.626;10.580;2023-11-19T10:06:15;102034.53;;;10.65;76.89
35129;BME280;21301;43.626;10.580;2023-11-19T10:08:41;102036.38;;;10.31;76.76
35129;BME280;21301;43.626;10.580;2023-11-19T10:11:08;102040.94;;;10.28;76.92
35129;BME280;21301;43.626;10.580;2023-11-19T10:13:36;102036.75;;;10.23;76.62
35129;BME280;21301;43.626;10.580;2023-11-19T10:16:28;102046.91;;;10.14;76.32
35129;BME280;21301;43.626;10.580;2023-11-19T10:18:55;102044.66;;;10.23;76.44
35129;BME280;21301;43.626;10.580;2023-11-19T10:21:21;102034.06;;;10.25;75.87
35129;BME280;21301;43.626;10.580;2023-11-19T10:23:48;102038.94;;;10.33;75.73
35129;BME280;21301;43.626;10.580;2023-11-19T10:26:15;102030.50;;;10.26;75.60
35129;BME280;21301;43.626;10.580;2023-11-19T10:28:41;102019.31;;;10.22;76.05
35129;BME280;21301;43.626;10.580;2023-11-19T10:31:15;102014.13;;;10.21;75.76
35129;BME280;21301;43.626;10.580;2023-11-19T10:33:41;102010.53;;;10.22;75.79
35129;BME280;21301;43.626;10.580;2023-11-19T10:36:09;102002.00;;;10.18;75.68
35129;BME280;21301;43.626;10.580;2023-11-19T10:38:35;102003.38;;;10.26;76.02
35129;BME280;21301;43.626;10.580;2023-11-19T10:41:00;101994.31;;;10.31;75.83
35129;BME280;21301;43.626;10.580;2023-11-19T10:43:26;102002.97;;;10.33;76.08
35129;BME280;21301;43.626;10.580;2023-11-19T10:45:53;101992.03;;;10.41;75.71
35129;BME280;21301;43.626;10.580;2023-11-19T10:48:18;101986.63;;;10.44;75.70
35129;BME280;21301;43.626;10.580;2023-11-19T10:50:46;101975.56;;;10.53;75.65
35129;BME280;21301;43.626;10.580;2023-11-19T10:53:15;101966.50;;;10.59;75.27
35129;BME280;21301;43.626;10.580;2023-11-19T10:55:47;101970.06;;;10.42;75.71
35129;BME280;21301;43.626;10.580;2023-11-19T10:58:15;101971.94;;;10.40;76.43
35129;BME280;21301;43.626;10.580;2023-11-19T11:00:47;101976.25;;;10.41;76.22
35129;BME280;21301;43.626;10.580;2023-11-19T11:03:21;101981.13;;;10.49;76.37
35129;BME280;21301;43.626;10.580;2023-11-19T11:05:53;101980.81;;;10.53;75.97
35129;BME280;21301;43.626;10.580;2023-11-19T11:08:19;101986.16;;;10.68;76.43
35129;BME280;21301;43.626;10.580;2023-11-19T11:10:52;101973.22;;;10.49;76.41
35129;BME280;21301;43.626;10.580;2023-11-19T11:13:19;101978.72;;;10.60;76.47
35129;BME280;21301;43.626;10.580;2023-11-19T11:15:48;101981.25;;;10.61;76.16
35129;BME280;21301;43.626;10.580;2023-11-19T11:18:14;101985.06;;;10.72;76.29
35129;BME280;21301;43.626;10.580;2023-11-19T11:20:40;101979.88;;;10.70;76.01
35129;BME280;21301;43.626;10.580;2023-11-19T11:23:34;101980.69;;;10.56;76.28
35129;BME280;21301;43.626;10.580;2023-11-19T11:28:54;101968.88;;;10.63;75.78
35129;BME280;21301;43.626;10.580;2023-11-19T11:34:57;101965.31;;;10.64;76.72
35129;BME280;21301;43.626;10.580;2023-11-19T11:39:57;101958.00;;;10.70;75.76
35129;BME280;21301;43.626;10.580;2023-11-19T11:45:05;101952.41;;;10.76;76.25
35129;BME280;21301;43.626;10.580;2023-11-19T11:50:12;101950.16;;;10.84;75.62
35129;BME280;21301;43.626;10.580;2023-11-19T11:55:27;101950.72;;;11.05;75.50
35129;BME280;21301;43.626;10.580;2023-11-19T11:57:56;101947.88;;;11.08;75.32
35129;BME280;21301;43.626;10.580;2023-11-19T12:00:32;101950.03;;;11.01;75.27
35129;BME280;21301;43.626;10.580;2023-11-19T12:03:02;101946.03;;;11.10;75.55
35129;BME280;21301;43.626;10.580;2023-11-19T12:05:29;101941.06;;;11.20;74.72
35129;BME280;21301;43.626;10.580;2023-11-19T12:08:05;101935.78;;;11.20;75.05
35129;BME280;21301;43.626;10.580;2023-11-19T12:10:37;101937.31;;;11.24;75.29
35129;BME280;21301;43.626;10.580;2023-11-19T12:13:06;101932.69;;;11.27;74.65
35129;BME280;21301;43.626;10.580;2023-11-19T12:18:30;101918.63;;;11.28;75.11
35129;BME280;21301;43.626;10.580;2023-11-19T12:21:01;101915.44;;;11.38;74.94
35129;BME280;21301;43.626;10.580;2023-11-19T12:23:30;101912.31;;;11.31;74.48
35129;BME280;21301;43.626;10.580;2023-11-19T12:25:59;101909.75;;;11.29;75.04
35129;BME280;21301;43.626;10.580;2023-11-19T12:28:25;101914.19;;;11.29;74.77
35129;BME280;21301;43.626;10.580;2023-11-19T12:31:07;101919.72;;;11.24;74.88
35129;BME280;21301;43.626;10.580;2023-11-19T12:33:35;101912.84;;;11.22;75.06
35129;BME280;21301;43.626;10.580;2023-11-19T12:36:01;101912.09;;;11.20;75.46
35129;BME280;21301;43.626;10.580;2023-11-19T12:38:33;101912.59;;;11.26;74.75
35129;BME280;21301;43.626;10.580;2023-11-19T12:41:03;101909.38;;;11.21;75.07
35129;BME280;21301;43.626;10.580;2023-11-19T12:43:29;101897.06;;;11.22;75.41
35129;BME280;21301;43.626;10.580;2023-11-19T12:45:54;101892.81;;;11.19;75.41
35129;BME280;21301;43.626;10.580;2023-11-19T12:48:20;101891.41;;;11.28;74.70
35129;BME280;21301;43.626;10.580;2023-11-19T12:50:56;101889.66;;;11.28;74.85
35129;BME280;21301;43.626;10.580;2023-11-19T12:53:27;101887.66;;;11.32;75.08
35129;BME280;21301;43.626;10.580;2023-11-19T12:55:54;101897.00;;;11.38;74.46
35129;BME280;21301;43.626;10.580;2023-11-19T12:58:34;101888.63;;;11.45;74.65
35129;BME280;21301;43.626;10.580;2023-11-19T13:01:05;101877.63;;;11.53;74.52
35129;BME280;21301;43.626;10.580;2023-11-19T13:06:11;101869.72;;;11.39;74.44
35129;BME280;21301;43.626;10.580;2023-11-19T13:08:40;101872.72;;;11.47;74.16
35129;BME280;21301;43.626;10.580;2023-11-19T13:11:07;101863.88;;;11.48;74.03